Overview Statistics Trail Chart Weather Telemetry Raw packets
 

This is the latest recevied weather packets stored in our database for station/object OE-11190. If no packets are shown the sender has not sent any weather packets the latest 10 day(s).

<< 1 2 3 4 >>
Time Temp. Humidity Pressure Rain* Wind** Luminosity Snow
1788410107 20.56° C 54% 1019.4 hPa 0 mm - 8 W/m² -
1788409508 20.56° C 54% 1019.3 hPa 0 mm - 0 W/m² -
1788408680 20.56° C 54% 1019.2 hPa 0 mm - 0 W/m² -
1788408308 20° C 58% 1019.3 hPa 0 mm - 0 W/m² -
1788407708 20° C 56% 1019.2 hPa 0 mm - 0 W/m² -
1788407107 20° C 56% 1019.2 hPa 0 mm - 0 W/m² -
1788406508 20° C 58% 1019.3 hPa 0 mm - 0 W/m² -
1788405908 20° C 57% 1019.1 hPa 0 mm - 0 W/m² -
1788405081 20° C 56% 1019.1 hPa 0 mm - 0 W/m² -
1788404708 20.56° C 54% 1019 hPa 0 mm - 0 W/m² -
1788404108 20.56° C 53% 1019 hPa 0 mm - 0 W/m² -
1788403508 20.56° C 52% 1019 hPa 0 mm - 0 W/m² -
1788402908 20.56° C 54% 1019.1 hPa 0 mm - 0 W/m² -
1788402308 20.56° C 53% 1019 hPa 0 mm - 0 W/m² -
1788401480 20.56° C 53% 1018.9 hPa 0 mm - 0 W/m² -
1788401108 21.11° C 51% 1019 hPa 0 mm - 0 W/m² -
1788400508 21.11° C 51% 1019 hPa 0 mm - 0 W/m² -
1788399688 21.11° C 52% 1019.1 hPa 0 mm - 0 W/m² -
1788399307 21.11° C 51% 1019.1 hPa 0 mm - 0 W/m² -
1788398707 21.11° C 52% 1019.2 hPa 0 mm - 0 W/m² -
1788397881 21.11° C 53% 1019.2 hPa 0 mm - 0 W/m² -
1788397508 20.56° C 59% 1019.2 hPa 0 mm - 0 W/m² -
1788396908 19.44° C 69% 1019.4 hPa 0 mm - 0 W/m² -
1788396081 19.44° C 68% 1019.4 hPa 0 mm - 0 W/m² -
1788395708 19.44° C 67% 1019.4 hPa 0 mm - 0 W/m² -

* Rain latest hour (hover to see other rain measurements)
** Current wind speed in m/s (hover to see current wind gust speed)